createdAt,value
2019-02-17T00:00:48.196Z,1.90
2019-02-17T00:03:15.330Z,2.00
2019-02-17T00:05:42.360Z,2.00
2019-02-17T00:08:09.382Z,2.00
2019-02-17T00:10:36.453Z,2.00
2019-02-17T00:13:03.449Z,1.90
2019-02-17T00:15:30.373Z,1.90
2019-02-17T00:17:57.164Z,1.80
2019-02-17T00:20:23.965Z,1.70
2019-02-17T00:22:50.765Z,1.70
2019-02-17T00:25:17.564Z,1.80
2019-02-17T00:27:44.593Z,1.90
2019-02-17T00:30:11.915Z,1.80
2019-02-17T00:32:38.917Z,1.80
2019-02-17T00:35:05.978Z,1.80
2019-02-17T00:37:32.979Z,1.80
2019-02-17T00:39:59.872Z,1.70
2019-02-17T00:42:26.690Z,1.70
2019-02-17T00:44:53.509Z,1.60
2019-02-17T00:47:20.333Z,1.50
2019-02-17T00:49:48.071Z,1.50
2019-02-17T00:52:14.880Z,1.50
2019-02-17T00:54:41.800Z,1.50
2019-02-17T00:57:08.822Z,1.40
2019-02-17T00:59:35.621Z,1.40
2019-02-17T01:02:02.653Z,1.30
2019-02-17T01:04:29.561Z,1.20
2019-02-17T01:06:56.580Z,1.20
2019-02-17T01:09:23.633Z,1.20
2019-02-17T01:11:50.678Z,1.10
2019-02-17T01:14:17.504Z,1.10
2019-02-17T01:16:44.534Z,1.20
2019-02-17T01:19:11.513Z,1.20
2019-02-17T01:21:38.425Z,1.20
2019-02-17T01:24:05.437Z,1.20
2019-02-17T01:26:32.347Z,1.20
2019-02-17T01:28:59.249Z,1.10
2019-02-17T01:31:26.172Z,1.10
2019-02-17T01:33:53.097Z,1.20
2019-02-17T01:36:20.011Z,1.10
2019-02-17T01:38:47.023Z,1.10
2019-02-17T01:41:14.029Z,1.00
2019-02-17T01:43:40.841Z,0.90
2019-02-17T01:46:07.836Z,0.80
2019-02-17T01:48:34.777Z,0.70
2019-02-17T01:51:01.695Z,0.60
2019-02-17T01:53:28.604Z,0.50
2019-02-17T01:55:56.042Z,0.40
2019-02-17T01:58:22.983Z,0.30
2019-02-17T02:00:49.987Z,0.20
2019-02-17T02:03:17.041Z,0.10
2019-02-17T02:05:43.845Z,0.00
2019-02-17T02:08:10.889Z,-0.10
2019-02-17T02:10:37.689Z,-0.20
2019-02-17T02:13:04.720Z,-0.20
2019-02-17T02:15:31.636Z,-0.20
2019-02-17T02:17:58.538Z,-0.30
2019-02-17T02:20:25.487Z,-0.30
2019-02-17T02:22:52.297Z,-0.40
2019-02-17T02:25:19.198Z,-0.40
2019-02-17T02:27:46.139Z,-0.50
2019-02-17T02:30:13.263Z,-0.60
2019-02-17T02:32:40.254Z,-0.60
2019-02-17T02:35:07.263Z,-0.60
2019-02-17T02:37:34.260Z,-0.70
2019-02-17T02:40:01.145Z,-0.70
2019-02-17T02:42:28.038Z,-0.70
2019-02-17T02:44:54.850Z,-0.60
2019-02-17T02:47:21.637Z,-0.60
2019-02-17T02:49:48.694Z,-0.60
2019-02-17T02:52:15.593Z,-0.50
2019-02-17T02:54:42.397Z,-0.50
2019-02-17T02:57:09.284Z,-0.40
2019-02-17T02:59:36.097Z,-0.40
2019-02-17T03:02:03.389Z,-0.40
2019-02-17T03:04:30.300Z,-0.40
2019-02-17T03:06:59.813Z,-0.40
2019-02-17T03:09:26.716Z,-0.50
2019-02-17T03:11:53.631Z,-0.60
2019-02-17T03:14:20.544Z,-0.70
2019-02-17T03:16:47.425Z,-0.70
2019-02-17T03:19:14.324Z,-0.80
2019-02-17T03:21:41.229Z,-0.80
2019-02-17T03:24:08.257Z,-0.80
2019-02-17T03:26:35.082Z,-0.90
2019-02-17T03:29:02.085Z,-0.90
2019-02-17T03:31:28.970Z,-0.90
2019-02-17T03:33:55.742Z,-0.80
2019-02-17T03:36:22.745Z,-0.80
2019-02-17T03:38:49.630Z,-0.90
2019-02-17T03:41:16.520Z,-0.90
2019-02-17T03:43:43.409Z,-0.80
2019-02-17T03:46:10.312Z,-0.80
2019-02-17T03:48:37.141Z,-0.80
2019-02-17T03:51:04.129Z,-0.70
2019-02-17T03:53:31.032Z,-0.70
2019-02-17T03:55:58.036Z,-0.70
2019-02-17T03:58:25.053Z,-0.70
2019-02-17T04:00:51.954Z,-0.70
2019-02-17T04:03:18.938Z,-0.70
2019-02-17T04:05:45.865Z,-0.70
2019-02-17T04:08:12.954Z,-0.70
2019-02-17T04:10:40.156Z,-0.80
2019-02-17T04:13:07.166Z,-0.80
2019-02-17T04:15:34.166Z,-0.80
2019-02-17T04:18:01.152Z,-0.90
2019-02-17T04:20:28.053Z,-0.90
2019-02-17T04:22:54.944Z,-1.00
2019-02-17T04:25:21.845Z,-1.10
2019-02-17T04:27:48.744Z,-1.10
2019-02-17T04:30:15.770Z,-1.20
2019-02-17T04:32:42.750Z,-1.20
2019-02-17T04:35:09.748Z,-1.20
2019-02-17T04:37:36.738Z,-1.20
2019-02-17T04:40:03.878Z,-1.20
2019-02-17T04:42:30.794Z,-1.20
2019-02-17T04:44:57.629Z,-1.20
2019-02-17T04:47:24.624Z,-1.30
2019-02-17T04:49:51.620Z,-1.30
2019-02-17T04:52:18.460Z,-1.30
2019-02-17T04:54:46.301Z,-1.40
2019-02-17T04:57:13.313Z,-1.40
2019-02-17T04:59:40.205Z,-1.40
2019-02-17T05:02:07.201Z,-1.40
2019-02-17T05:04:34.004Z,-1.40
2019-02-17T05:07:00.917Z,-1.40
2019-02-17T05:09:27.816Z,-1.40
2019-02-17T05:11:54.625Z,-1.40
2019-02-17T05:14:21.424Z,-1.40
2019-02-17T05:16:48.344Z,-1.30
2019-02-17T05:19:15.147Z,-1.40
2019-02-17T05:21:42.061Z,-1.40
2019-02-17T05:24:08.944Z,-1.40
2019-02-17T05:26:35.742Z,-1.40
2019-02-17T05:29:02.771Z,-1.40
2019-02-17T05:31:29.693Z,-1.40
2019-02-17T05:33:56.583Z,-1.40
2019-02-17T05:36:23.383Z,-1.30
2019-02-17T05:38:50.183Z,-1.30
2019-02-17T05:41:16.987Z,-1.40
2019-02-17T05:43:44.036Z,-1.40
2019-02-17T05:46:11.037Z,-1.40
2019-02-17T05:48:37.859Z,-1.50
2019-02-17T05:51:04.832Z,-1.50
2019-02-17T05:53:31.762Z,-1.60
2019-02-17T05:55:58.591Z,-1.60
2019-02-17T05:58:25.392Z,-1.70
2019-02-17T06:01:03.000Z,-1.70
2019-02-17T06:03:21.325Z,-1.80
2019-02-17T06:05:48.234Z,-1.80
2019-02-17T06:08:15.163Z,-1.90
2019-02-17T06:10:42.165Z,-1.90
2019-02-17T06:13:08.990Z,-1.90
2019-02-17T06:15:35.891Z,-1.90
2019-02-17T06:18:02.940Z,-2.00
2019-02-17T06:20:29.721Z,-2.00
2019-02-17T06:22:56.633Z,-2.00
2019-02-17T06:25:23.533Z,-2.00
2019-02-17T06:27:50.440Z,-2.10
2019-02-17T06:30:17.249Z,-2.10
2019-02-17T06:32:44.173Z,-2.10
2019-02-17T06:35:11.174Z,-2.10
2019-02-17T06:37:38.089Z,-2.10
2019-02-17T06:40:05.370Z,-2.00
2019-02-17T06:42:32.365Z,-2.00
2019-02-17T06:44:59.163Z,-1.90
2019-02-17T06:47:32.381Z,-1.60
2019-02-17T06:49:59.172Z,-1.20
2019-02-17T06:52:25.973Z,-0.70
2019-02-17T06:55:27.305Z,-0.20
2019-02-17T06:57:54.105Z,0.40
2019-02-17T07:00:28.899Z,1.20
2019-02-17T07:02:55.936Z,1.70
2019-02-17T07:05:40.967Z,2.20
2019-02-17T07:08:08.581Z,2.70
2019-02-17T07:10:35.476Z,2.90
2019-02-17T07:13:02.381Z,3.10
2019-02-17T07:15:29.366Z,3.40
2019-02-17T07:17:56.417Z,3.60
2019-02-17T07:20:23.450Z,3.70
2019-02-17T07:22:50.233Z,3.90
2019-02-17T07:25:17.141Z,4.10
2019-02-17T07:27:44.149Z,4.40
2019-02-17T07:30:11.056Z,4.70
2019-02-17T07:32:37.957Z,4.90
2019-02-17T07:35:04.947Z,5.30
2019-02-17T07:37:33.884Z,5.40
2019-02-17T07:40:00.579Z,5.70
2019-02-17T07:42:27.596Z,6.00
2019-02-17T07:44:54.530Z,6.40
2019-02-17T07:47:24.649Z,6.80
2019-02-17T07:49:51.664Z,7.20
2019-02-17T07:52:18.585Z,7.20
2019-02-17T07:54:45.506Z,8.00
2019-02-17T07:57:12.537Z,8.40
2019-02-17T07:59:39.693Z,8.60
2019-02-17T08:02:06.492Z,8.80
2019-02-17T08:04:33.397Z,8.60
2019-02-17T08:07:00.298Z,8.90
2019-02-17T08:09:27.154Z,8.80
2019-02-17T08:11:54.134Z,8.70
2019-02-17T08:14:21.130Z,8.90
2019-02-17T08:16:48.030Z,9.30
2019-02-17T08:19:14.846Z,9.80
2019-02-17T08:21:41.776Z,10.40
2019-02-17T08:24:08.588Z,10.50
2019-02-17T08:26:35.492Z,11.00
2019-02-17T08:29:02.417Z,11.10
2019-02-17T08:31:29.363Z,11.50
2019-02-17T08:33:56.312Z,11.50
2019-02-17T08:36:23.323Z,11.40
2019-02-17T08:38:50.123Z,11.80
2019-02-17T08:41:17.126Z,11.90
2019-02-17T08:43:44.044Z,12.20
2019-02-17T08:46:10.862Z,12.40
2019-02-17T08:48:37.682Z,13.00
2019-02-17T08:51:04.609Z,13.90
2019-02-17T08:53:31.522Z,14.30
2019-02-17T08:55:58.349Z,14.20
2019-02-17T08:58:25.242Z,14.90
2019-02-17T09:00:52.264Z,15.30
2019-02-17T09:03:19.057Z,14.50
2019-02-17T09:05:45.863Z,14.70
2019-02-17T09:08:12.770Z,15.40
2019-02-17T09:10:39.713Z,15.80
2019-02-17T09:13:06.662Z,15.70
2019-02-17T09:15:33.573Z,15.60
2019-02-17T09:18:00.352Z,15.90
2019-02-17T09:20:27.318Z,16.60
2019-02-17T09:22:54.209Z,17.40
2019-02-17T09:25:21.113Z,17.80
2019-02-17T09:27:47.991Z,18.60
2019-02-17T09:30:15.533Z,18.70
2019-02-17T09:32:42.430Z,19.60
2019-02-17T09:35:09.329Z,19.70
2019-02-17T09:37:36.117Z,18.90
2019-02-17T09:40:03.362Z,19.00
2019-02-17T09:42:30.368Z,18.90
2019-02-17T09:44:57.356Z,18.90
2019-02-17T09:47:24.323Z,19.50
2019-02-17T09:49:51.310Z,19.40
2019-02-17T09:52:18.326Z,19.40
2019-02-17T09:54:45.258Z,20.00
2019-02-17T09:57:12.072Z,20.70
2019-02-17T09:59:39.081Z,20.70
2019-02-17T10:02:06.091Z,20.60
2019-02-17T10:04:32.993Z,20.80
2019-02-17T10:06:59.806Z,20.80
2019-02-17T10:09:26.610Z,20.70
2019-02-17T10:11:53.601Z,20.50
2019-02-17T10:14:20.629Z,20.60
2019-02-17T10:16:47.549Z,21.10
2019-02-17T10:19:14.480Z,21.60
2019-02-17T10:21:41.408Z,22.20
2019-02-17T10:24:08.197Z,22.70
2019-02-17T10:26:35.122Z,23.50
2019-02-17T10:29:01.921Z,24.10
2019-02-17T10:31:28.929Z,24.50
2019-02-17T10:33:55.786Z,24.60
2019-02-17T10:36:22.672Z,24.60
2019-02-17T10:38:49.572Z,24.80
2019-02-17T10:41:16.375Z,25.30
2019-02-17T10:43:43.406Z,25.90
2019-02-17T10:46:10.575Z,26.30
2019-02-17T10:48:37.501Z,27.00
2019-02-17T10:51:04.499Z,27.40
2019-02-17T10:53:31.419Z,27.90
2019-02-17T10:55:58.232Z,28.60
2019-02-17T10:58:25.376Z,29.00
2019-02-17T11:00:52.449Z,29.20
2019-02-17T11:03:19.286Z,30.00
2019-02-17T11:05:46.190Z,30.30
2019-02-17T11:08:13.042Z,30.50
2019-02-17T11:10:40.157Z,30.80
2019-02-17T11:13:07.145Z,31.10
2019-02-17T11:15:34.233Z,31.30
2019-02-17T11:18:01.145Z,31.20
2019-02-17T11:20:28.061Z,31.30
2019-02-17T11:22:55.058Z,31.60
2019-02-17T11:25:21.941Z,31.40
2019-02-17T11:27:48.840Z,30.90
2019-02-17T11:30:15.842Z,30.70
2019-02-17T11:32:42.839Z,30.40
2019-02-17T11:35:09.943Z,30.30
2019-02-17T11:37:36.832Z,30.90
2019-02-17T11:40:05.241Z,31.10
2019-02-17T11:42:32.180Z,31.20
2019-02-17T11:44:59.079Z,31.40
2019-02-17T11:47:26.000Z,30.80
2019-02-17T11:49:52.785Z,30.70
2019-02-17T11:52:19.590Z,31.20
2019-02-17T11:54:47.672Z,31.30
2019-02-17T11:57:14.686Z,30.60
2019-02-17T11:59:41.497Z,30.70
2019-02-17T12:02:08.394Z,30.90
2019-02-17T12:04:35.422Z,30.90
2019-02-17T12:07:02.529Z,31.40
2019-02-17T12:09:29.449Z,31.70
2019-02-17T12:11:56.264Z,32.70
2019-02-17T12:14:30.454Z,32.60
2019-02-17T12:16:57.393Z,32.10
2019-02-17T12:19:27.049Z,31.50
2019-02-17T12:22:12.083Z,32.30
2019-02-17T12:24:43.766Z,32.50
2019-02-17T12:27:17.443Z,32.70
2019-02-17T12:30:06.238Z,33.10
2019-02-17T12:32:33.169Z,32.60
2019-02-17T12:35:00.102Z,32.50
2019-02-17T12:37:27.071Z,32.30
2019-02-17T12:39:53.977Z,32.80
2019-02-17T12:42:20.859Z,32.40
2019-02-17T12:44:47.894Z,32.20
2019-02-17T12:47:14.770Z,32.60
2019-02-17T12:49:41.565Z,32.80
2019-02-17T12:52:08.462Z,33.00
2019-02-17T12:54:35.361Z,33.80
2019-02-17T12:57:02.346Z,33.10
2019-02-17T12:59:29.236Z,32.60
2019-02-17T13:01:56.029Z,31.80
2019-02-17T13:04:22.919Z,31.90
2019-02-17T13:06:49.693Z,32.80
2019-02-17T13:09:16.710Z,33.30
2019-02-17T13:11:43.587Z,32.90
2019-02-17T13:14:10.498Z,31.70
2019-02-17T13:16:37.490Z,30.70
2019-02-17T13:19:04.490Z,30.80
2019-02-17T13:21:31.382Z,31.60
2019-02-17T13:23:58.288Z,31.70
2019-02-17T13:26:25.093Z,32.10
2019-02-17T13:28:51.996Z,32.30
2019-02-17T13:31:18.797Z,32.70
2019-02-17T13:33:45.598Z,32.80
2019-02-17T13:36:12.593Z,32.10
2019-02-17T13:38:39.396Z,31.70
2019-02-17T13:41:06.226Z,31.60
2019-02-17T13:43:33.283Z,31.60
2019-02-17T13:46:00.081Z,31.90
2019-02-17T13:48:26.875Z,31.60
2019-02-17T13:50:53.679Z,32.00
2019-02-17T13:53:20.461Z,31.80
2019-02-17T13:55:47.408Z,31.90
2019-02-17T13:58:14.213Z,32.10
2019-02-17T14:00:41.204Z,33.00
2019-02-17T14:03:08.083Z,33.20
2019-02-17T14:05:34.876Z,33.30
2019-02-17T14:08:01.653Z,33.10
2019-02-17T14:10:28.465Z,32.50
2019-02-17T14:12:55.249Z,33.20
2019-02-17T14:15:22.540Z,33.60
2019-02-17T14:17:49.568Z,34.10
2019-02-17T14:20:16.464Z,34.10
2019-02-17T14:22:43.355Z,34.00
2019-02-17T14:25:11.362Z,34.50
2019-02-17T14:27:38.544Z,34.90
2019-02-17T14:30:07.163Z,34.30
2019-02-17T14:32:33.947Z,34.20
2019-02-17T14:35:00.841Z,34.20
2019-02-17T14:37:27.826Z,34.50
2019-02-17T14:39:54.773Z,34.60
2019-02-17T14:42:21.652Z,34.30
2019-02-17T14:44:48.736Z,33.90
2019-02-17T14:47:15.677Z,33.90
2019-02-17T14:49:42.625Z,33.10
2019-02-17T14:52:09.505Z,32.50
2019-02-17T14:54:36.408Z,31.90
2019-02-17T14:57:03.389Z,31.30
2019-02-17T14:59:30.334Z,31.20
2019-02-17T15:01:57.120Z,31.40
2019-02-17T15:04:24.005Z,31.70
2019-02-17T15:06:50.894Z,32.00
2019-02-17T15:09:17.800Z,31.80
2019-02-17T15:11:44.678Z,31.90
2019-02-17T15:14:11.557Z,31.90
2019-02-17T15:16:38.607Z,31.30
2019-02-17T15:19:05.617Z,31.30
2019-02-17T15:21:32.431Z,30.90
2019-02-17T15:23:59.317Z,30.50
2019-02-17T15:26:26.326Z,29.80
2019-02-17T15:28:53.230Z,29.80
2019-02-17T15:31:20.008Z,29.60
2019-02-17T15:33:46.796Z,29.80
2019-02-17T15:36:13.592Z,29.90
2019-02-17T15:38:40.613Z,29.40
2019-02-17T15:41:07.620Z,28.90
2019-02-17T15:43:34.507Z,28.70
2019-02-17T15:46:01.497Z,28.70
2019-02-17T15:48:28.285Z,28.50
2019-02-17T15:50:55.076Z,27.90
2019-02-17T15:53:21.967Z,27.20
2019-02-17T15:55:48.753Z,26.80
2019-02-17T15:58:15.541Z,26.20
2019-02-17T16:00:42.532Z,25.30
2019-02-17T16:03:09.617Z,25.20
2019-02-17T16:05:36.529Z,25.20
2019-02-17T16:08:03.433Z,24.90
2019-02-17T16:10:30.430Z,24.60
2019-02-17T16:12:57.302Z,24.00
2019-02-17T16:15:24.170Z,23.70
2019-02-17T16:17:50.957Z,23.30
2019-02-17T16:20:17.958Z,22.70
2019-02-17T16:22:44.928Z,22.30
2019-02-17T16:25:12.048Z,21.80
2019-02-17T16:27:39.048Z,20.70
2019-02-17T16:30:08.961Z,19.20
2019-02-17T16:32:35.781Z,18.00
2019-02-17T16:35:02.775Z,17.00
2019-02-17T16:37:29.756Z,16.20
2019-02-17T16:39:56.597Z,15.70
2019-02-17T16:42:23.390Z,15.10
2019-02-17T16:44:50.172Z,14.50
2019-02-17T16:47:17.207Z,14.10
2019-02-17T16:49:44.017Z,13.70
2019-02-17T16:52:10.894Z,13.30
2019-02-17T16:54:37.858Z,12.90
2019-02-17T16:57:04.901Z,12.90
2019-02-17T16:59:31.757Z,12.90
2019-02-17T17:01:58.785Z,12.70
2019-02-17T17:04:25.766Z,12.60
2019-02-17T17:06:52.666Z,12.30
2019-02-17T17:09:19.580Z,12.10
2019-02-17T17:11:46.381Z,11.90
2019-02-17T17:14:13.282Z,11.60
2019-02-17T17:16:40.305Z,11.50
2019-02-17T17:19:07.396Z,11.30
2019-02-17T17:21:34.341Z,11.10
2019-02-17T17:24:01.255Z,10.90
2019-02-17T17:26:28.184Z,10.70
2019-02-17T17:28:55.106Z,10.50
2019-02-17T17:31:21.925Z,10.40
2019-02-17T17:33:48.866Z,10.20
2019-02-17T17:36:15.888Z,10.00
2019-02-17T17:38:42.697Z,9.90
2019-02-17T17:41:09.499Z,9.70
2019-02-17T17:43:36.324Z,9.60
2019-02-17T17:46:03.329Z,9.40
2019-02-17T17:48:30.222Z,9.20
2019-02-17T17:50:57.176Z,9.00
2019-02-17T17:53:24.123Z,8.80
2019-02-17T17:55:51.091Z,8.70
2019-02-17T17:58:18.015Z,8.50
2019-02-17T18:00:45.039Z,8.40
2019-02-17T18:03:12.039Z,8.20
2019-02-17T18:05:38.938Z,8.10
2019-02-17T18:08:05.752Z,7.90
2019-02-17T18:10:32.552Z,7.80
2019-02-17T18:12:59.394Z,7.70
2019-02-17T18:15:26.410Z,7.60
2019-02-17T18:17:54.900Z,7.50
2019-02-17T18:20:25.413Z,7.30
2019-02-17T18:22:52.320Z,7.20
2019-02-17T18:25:19.224Z,7.10
2019-02-17T18:27:46.026Z,7.00
2019-02-17T18:30:16.174Z,6.90
2019-02-17T18:32:42.631Z,6.80
2019-02-17T18:35:18.809Z,6.70
2019-02-17T18:37:38.567Z,6.60
2019-02-17T18:40:06.524Z,6.50
2019-02-17T18:42:33.475Z,6.40
2019-02-17T18:45:00.375Z,6.30
2019-02-17T18:47:27.360Z,6.10
2019-02-17T18:49:54.143Z,5.90
2019-02-17T18:52:21.151Z,5.80
2019-02-17T18:54:47.960Z,5.70
2019-02-17T18:57:14.970Z,5.50
2019-02-17T18:59:41.779Z,5.40
2019-02-17T19:02:08.765Z,5.30
2019-02-17T19:04:35.784Z,5.20
2019-02-17T19:07:02.682Z,5.20
2019-02-17T19:09:29.705Z,5.20
2019-02-17T19:11:56.714Z,5.10
2019-02-17T19:14:23.511Z,4.90
2019-02-17T19:16:50.648Z,4.80
2019-02-17T19:19:17.541Z,4.70
2019-02-17T19:21:44.360Z,4.70
2019-02-17T19:24:11.273Z,4.60
2019-02-17T19:26:38.172Z,4.60
2019-02-17T19:29:05.113Z,4.60
2019-02-17T19:31:32.009Z,4.60
2019-02-17T19:33:58.813Z,4.60
2019-02-17T19:36:25.717Z,4.70
2019-02-17T19:38:52.521Z,4.70
2019-02-17T19:41:19.471Z,4.70
2019-02-17T19:43:46.548Z,4.70
2019-02-17T19:46:13.369Z,4.70
2019-02-17T19:48:40.272Z,4.70
2019-02-17T19:51:07.092Z,4.80
2019-02-17T19:53:33.913Z,4.80
2019-02-17T19:56:00.801Z,4.80
2019-02-17T19:58:27.622Z,4.90
2019-02-17T20:00:54.622Z,4.90
2019-02-17T20:03:39.444Z,4.80
2019-02-17T20:06:06.467Z,4.70
2019-02-17T20:08:33.381Z,4.60
2019-02-17T20:11:00.381Z,4.50
2019-02-17T20:13:27.193Z,4.30
2019-02-17T20:15:54.193Z,4.20
2019-02-17T20:18:21.036Z,4.20
2019-02-17T20:20:47.945Z,4.10
2019-02-17T20:23:14.781Z,4.10
2019-02-17T20:25:41.670Z,4.00
2019-02-17T20:28:08.591Z,4.00
2019-02-17T20:30:35.395Z,4.00
2019-02-17T20:33:02.386Z,3.90
2019-02-17T20:35:29.380Z,3.90
2019-02-17T20:37:56.291Z,3.90
2019-02-17T20:40:23.305Z,3.80
2019-02-17T20:42:50.329Z,3.80
2019-02-17T20:45:17.224Z,3.70
2019-02-17T20:47:44.256Z,3.70
2019-02-17T20:50:11.188Z,3.60
2019-02-17T20:52:38.147Z,3.50
2019-02-17T20:55:05.333Z,3.50
2019-02-17T20:57:32.243Z,3.40
2019-02-17T20:59:59.304Z,3.30
2019-02-17T21:02:29.257Z,3.20
2019-02-17T21:04:56.381Z,3.10
2019-02-17T21:07:23.306Z,3.00
2019-02-17T21:09:50.360Z,3.00
2019-02-17T21:12:17.596Z,2.90
2019-02-17T21:14:44.753Z,2.90
2019-02-17T21:17:11.567Z,2.80
2019-02-17T21:19:38.593Z,2.80
2019-02-17T21:22:05.514Z,2.80
2019-02-17T21:24:32.737Z,2.70
2019-02-17T21:26:59.573Z,2.70
2019-02-17T21:29:26.696Z,2.60
2019-02-17T21:31:53.625Z,2.40
2019-02-17T21:34:20.556Z,2.30
2019-02-17T21:36:48.113Z,2.20
2019-02-17T21:39:15.059Z,2.20
2019-02-17T21:41:42.124Z,2.20
2019-02-17T21:44:09.301Z,2.20
2019-02-17T21:46:36.336Z,2.20
2019-02-17T21:49:03.497Z,2.20
2019-02-17T21:51:30.447Z,2.10
2019-02-17T21:53:57.404Z,2.10
2019-02-17T21:56:24.422Z,2.00
2019-02-17T21:58:51.463Z,2.00
2019-02-17T22:01:18.514Z,2.00
2019-02-17T22:03:45.378Z,1.90
2019-02-17T22:06:12.449Z,1.90
2019-02-17T22:08:39.367Z,1.90
2019-02-17T22:11:06.598Z,1.90
2019-02-17T22:13:33.501Z,1.90
2019-02-17T22:16:00.424Z,1.90
2019-02-17T22:18:29.628Z,2.00
2019-02-17T22:20:56.168Z,2.10
2019-02-17T22:23:23.006Z,2.20
2019-02-17T22:25:50.025Z,2.30
2019-02-17T22:28:17.040Z,2.40
2019-02-17T22:30:43.885Z,2.50
2019-02-17T22:33:10.949Z,2.50
2019-02-17T22:35:37.888Z,2.60
2019-02-17T22:38:04.804Z,2.60
2019-02-17T22:40:31.903Z,2.60
2019-02-17T22:42:58.827Z,2.50
2019-02-17T22:45:25.857Z,2.50
2019-02-17T22:47:52.884Z,2.50
2019-02-17T22:50:19.841Z,2.40
2019-02-17T22:52:46.981Z,2.20
2019-02-17T22:55:14.031Z,2.10
2019-02-17T22:57:41.163Z,2.00
2019-02-17T23:00:34.319Z,1.90
2019-02-17T23:03:01.322Z,1.80
2019-02-17T23:05:28.313Z,1.80
2019-02-17T23:07:55.313Z,1.80
2019-02-17T23:10:22.333Z,1.80
2019-02-17T23:12:49.241Z,1.80
2019-02-17T23:15:16.258Z,1.70
2019-02-17T23:17:43.069Z,1.70
2019-02-17T23:20:10.064Z,1.60
2019-02-17T23:22:37.178Z,1.60
2019-02-17T23:25:05.198Z,1.60
2019-02-17T23:27:32.176Z,1.50
2019-02-17T23:29:59.167Z,1.40
2019-02-17T23:32:26.161Z,1.40
2019-02-17T23:34:53.069Z,1.40
2019-02-17T23:37:20.012Z,1.40
2019-02-17T23:39:47.047Z,1.30
2019-02-17T23:42:14.056Z,1.30
2019-02-17T23:44:40.868Z,1.30
2019-02-17T23:47:27.390Z,1.20
2019-02-17T23:49:54.283Z,1.20
2019-02-17T23:52:21.198Z,1.20
2019-02-17T23:54:48.098Z,1.10
2019-02-17T23:57:15.005Z,1.10
2019-02-17T23:59:41.905Z,1.10
